Latest Coastal Weather Observations for Coolangatta

IDQ60701

Issued at 10:22 am EST Wednesday 16 October 2019 (issued every 10 minutes, with the page automatically refreshed every 10 minutes)

About coastal observations | Map of coastal stations | Coastal observations for QLD | Marine services | Other Formats
Station Details ID: 040717 Name: COOLANGATTA Lat: -28.17 Lon: 153.51 Height: 4.0 m
Data from the previous 72 hours. | See also: Recent months at Coolangatta

Observations at Coolangatta are collected in the Queensland time zone, which does not include daylight savings during the summer period. Therefore 'Rain since 9am' totals and other values are based on the Queensland time zone.

Date/Time
EST
Wind Sea
Height
m
Swell Vis
km
Cloud Weather Temp
°C
Press
hPa
Rain since
9am
mm
Dir  Spd
kts
Gust
kts
Height
m
Period
s
Dir
16/10:00am N 17 21 - - - - 10 Partly cloudy - 25.6 1015.0 0.0
16/09:30am N 18 22 - - - - 10 Cloudy - 25.6 1015.4 0.0
16/09:00am NNW 14 23 - - - - 10 Partly cloudy - 26.4 1015.7 0.0
16/08:30am NW 13 19 - - - - 10 Partly cloudy - 24.3 1015.6 0.0
16/08:00am NNW 15 22 - - - - 10 Partly cloudy - 23.8 1015.6 0.0
16/07:30am NNW 14 19 - - - - 10 Partly cloudy - 23.1 1015.4 0.0
16/07:00am NNW 14 19 - - - - 10 Partly cloudy - 22.3 1015.2 0.0
16/06:30am NNW 12 16 - - - - 10 Cloudy - 21.3 1015.2 0.0
16/06:00am NNW 10 14 - - - - 10 Cloudy - 21.0 1015.0 0.0
16/05:53am NNW 11 17 - - - - 10 Cloudy - 20.9 1014.8 0.0
16/05:30am NW 9 17 - - - - 10 Cloudy - 20.8 1014.6 0.0
16/05:00am NNW 9 13 - - - - 10 Cloudy - 20.6 1014.5 0.0
16/04:30am NNW 11 15 - - - - 10 Cloudy - 20.5 1014.2 0.0
16/04:17am NNW 9 13 - - - - 10 Partly cloudy - 20.3 1014.2 0.0
16/04:00am NNW 8 12 - - - - 10 - - 20.1 1014.1 0.0
16/03:30am NNW 8 11 - - - - 10 - - 20.1 1014.1 0.0
16/03:00am NNW 7 9 - - - - 10 - - 20.3 1013.8 0.0
16/02:30am NNW 7 10 - - - - 10 - - 20.4 1013.9 0.0
16/02:00am NNW 7 9 - - - - 10 Partly cloudy - 20.7 1014.1 0.0
16/01:30am NNW 7 10 - - - - 10 Partly cloudy - 21.0 1014.2 0.0
16/01:00am NNW 7 11 - - - - 10 Cloudy - 21.2 1014.3 0.0
16/12:30am NNW 6 9 - - - - 10 Partly cloudy - 20.9 1014.4 0.0
16/12:00am NNW 7 9 - - - - 10 - - 20.7 1014.4 0.0
 
Date/Time
EST
Wind Sea
Height
m
Swell Vis
km
Cloud Weather Temp
°C
Press
hPa
Rain since
9am
mm
Dir  Spd
kts
Gust
kts
Height
m
Period
s
Dir
15/11:30pm NNW 6 8 - - - - 10 - - 20.8 1014.6 0.0
15/11:00pm NW 6 7 - - - - 10 - - 20.6 1014.6 0.0
15/10:30pm NW 6 9 - - - - 10 - - 20.8 1014.6 0.0
15/10:00pm NNW 7 11 - - - - 10 Partly cloudy - 21.2 1014.4 0.0
15/09:30pm NW 6 9 - - - - 10 Partly cloudy - 21.0 1014.4 0.0
15/09:00pm NNW 6 8 - - - - 10 Mostly clear - 21.1 1014.3 0.0
15/08:30pm NNW 7 10 - - - - 10 Partly cloudy - 21.4 1014.1 0.0
15/08:00pm NNW 6 8 - - - - 10 Partly cloudy - 21.6 1014.2 0.0
15/07:30pm NNW 6 8 - - - - 10 Partly cloudy - 21.3 1013.9 0.0
15/07:00pm NNW 6 8 - - - - 10 Cloudy - 21.6 1013.6 0.0
15/06:30pm NNW 7 9 - - - - 10 Partly cloudy - 21.7 1013.2 0.0
15/06:00pm N 9 13 - - - - 10 Mostly cloudy - 21.9 1012.7 0.0
15/05:30pm N 10 14 - - - - 10 Partly cloudy - 22.2 1012.3 0.0
15/05:00pm N 12 15 - - - - 10 Partly cloudy - 22.8 1011.9 0.0
15/04:30pm N 12 15 - - - - 10 Partly cloudy - 23.0 1012.0 0.0
15/04:00pm N 12 16 - - - - 10 Partly cloudy - 23.3 1011.8 0.0
15/03:30pm N 14 17 - - - - 10 Partly cloudy - 23.2 1011.9 0.0
15/03:00pm N 15 18 - - - - 10 Partly cloudy - 23.6 1011.9 0.0
15/02:30pm N 13 18 - - - - 10 Partly cloudy - 24.5 1011.8 0.0
15/02:00pm N 14 17 - - - - 10 Partly cloudy - 23.7 1012.1 0.0
15/01:30pm N 15 19 - - - - 10 - - 23.8 1012.1 0.0
15/01:00pm N 15 19 - - - - 10 - - 23.9 1012.4 0.0
15/12:30pm N 17 20 - - - - 10 - - 25.2 1012.7 0.0
15/12:00pm N 18 21 - - - - 10 - - 25.1 1012.8 0.0
15/11:30am N 17 23 - - - - 10 - - 25.4 1012.9 0.0
15/11:00am NNW 15 21 - - - - 10 - - 25.3 1013.1 0.0
15/10:30am N 15 19 - - - - 10 - - 24.2 1013.5 0.0
15/10:00am N 15 18 - - - - 10 Partly cloudy - 23.5 1014.2 0.0
15/09:30am NNW 13 20 - - - - 10 Partly cloudy - 24.0 1014.6 0.0
15/09:00am NNW 9 11 - - - - 10 Cloudy Drizzle 22.2 1015.2 0.0
15/08:30am NW 7 9 - - - - 10 Partly cloudy - 21.4 1015.6 0.0
15/08:00am NNW 10 14 - - - - 10 Partly cloudy - 20.8 1015.2 0.0
15/07:30am NW 9 13 - - - - 10 Cloudy - 21.5 1015.2 0.0
15/07:00am NW 8 13 - - - - 10 Partly cloudy - 20.8 1014.7 0.0
15/06:30am WNW 8 11 - - - - 10 Partly cloudy - 19.8 1014.9 0.0
15/06:00am NW 4 7 - - - - 10 Cloudy Drizzle 18.7 1014.5 0.0
15/05:30am WSW 3 5 - - - - 10 Partly cloudy - 17.5 1014.4 0.0
15/05:00am NNW 3 6 - - - - 7 - - 16.9 1014.1 0.0
15/04:30am N 4 5 - - - - 10 Partly cloudy - 17.7 1013.9 0.0
15/04:00am W 3 4 - - - - 10 Partly cloudy - 18.3 1014.3 0.0
15/03:30am W 4 6 - - - - 10 Partly cloudy - 18.1 1014.7 0.0
15/03:00am WNW 3 4 - - - - 10 Cloudy - 17.6 1014.0 0.0
15/02:30am CALM 0 0 - - - - 10 Partly cloudy - 17.2 1013.8 0.0
15/02:00am CALM 0 0 - - - - 10 - - 17.2 1014.2 0.0
15/01:30am NW 2 4 - - - - 10 Partly cloudy - 18.1 1014.8 0.0
15/01:00am NW 4 5 - - - - 10 Cloudy - 18.2 1014.9 0.0
15/12:30am WNW 5 6 - - - - 10 Cloudy - 17.2 1015.1 0.0
15/12:00am WNW 4 5 - - - - 10 - - 16.8 1015.3 0.0
 
Date/Time
EST
Wind Sea
Height
m
Swell Vis
km
Cloud Weather Temp
°C
Press
hPa
Rain since
9am
mm
Dir  Spd
kts
Gust
kts
Height
m
Period
s
Dir
14/11:30pm NW 3 4 - - - - 10 - - 17.0 1015.4 0.0
14/11:00pm NW 5 6 - - - - 10 - - 17.6 1015.4 0.0
14/10:30pm NW 5 6 - - - - 10 - - 18.0 1015.5 0.0
14/10:00pm NNW 6 8 - - - - 10 - - 19.2 1015.5 0.0
14/09:30pm NNW 7 10 - - - - 10 - - 19.5 1015.3 0.0
14/09:00pm NNW 7 11 - - - - 10 - - 20.0 1015.6 0.0
14/08:30pm NNW 9 11 - - - - 10 - - 20.2 1015.8 0.0
14/08:00pm NNW 9 12 - - - - 10 - - 20.2 1015.7 0.0
14/07:30pm NNW 9 11 - - - - 10 - - 20.2 1015.5 0.0
14/07:00pm N 9 11 - - - - 10 - - 20.6 1015.1 0.0
14/06:30pm N 9 11 - - - - 10 - - 20.7 1014.8 0.0
14/06:00pm N 10 13 - - - - 10 - - 20.8 1014.5 0.0
14/05:30pm N 10 12 - - - - 10 - - 21.0 1014.6 0.0
14/05:00pm NNE 10 13 - - - - 10 - - 21.3 1014.6 0.0
14/04:30pm NNE 11 13 - - - - 10 - - 21.3 1014.6 0.0
14/04:00pm NNE 10 12 - - - - 10 Partly cloudy - 21.5 1014.7 0.0
14/03:30pm NNE 10 12 - - - - 10 Partly cloudy - 21.7 1014.8 0.0
14/03:00pm NE 10 14 - - - - 10 Mostly clear - 22.3 1014.8 0.0
14/02:30pm NE 11 14 - - - - 10 - - 22.8 1015.0 0.0
14/02:00pm NE 11 14 - - - - 10 - - 22.5 1015.5 0.0
14/01:30pm NE 12 15 - - - - 10 - - 22.4 1015.8 0.0
14/01:00pm NE 11 15 - - - - 10 - - 22.7 1016.3 0.0
14/12:30pm NE 12 15 - - - - 10 - - 22.1 1016.7 0.0
14/12:00pm NE 11 15 - - - - 10 - - 22.5 1017.3 0.0
14/11:30am NE 11 13 - - - - 10 - - 21.4 1017.9 0.0
14/11:00am NE 11 14 - - - - 10 Partly cloudy - 21.6 1018.3 0.0
14/10:30am NE 11 13 - - - - 10 - - 22.1 1018.8 0.0
14/10:00am NE 10 12 - - - - 10 Partly cloudy - 22.1 1019.0 0.0
14/09:30am NE 7 9 - - - - 10 Partly cloudy - 21.6 1019.3 0.0
14/09:00am NE 7 10 - - - - 10 Partly cloudy - 21.4 1019.4 0.0
14/08:30am E 4 6 - - - - 10 - - 21.5 1019.7 0.0
14/08:00am WSW 4 6 - - - - 10 - - 20.6 1019.2 0.0
14/07:30am SW 5 7 - - - - 10 - - 19.1 1019.1 0.0
14/07:00am CALM 0 0 - - - - 10 - - 17.9 1019.1 0.0
14/06:30am CALM 0 0 - - - - 10 - - 16.1 1019.1 0.0
14/06:00am SSW 3 5 - - - - 10 - - 14.5 1019.0 0.0
14/05:30am SSW 3 4 - - - - 10 - - 13.2 1018.8 0.0
14/05:00am SW 5 6 - - - - 10 - - 12.7 1018.4 0.0
14/04:30am SW 5 5 - - - - 10 - - 12.5 1018.2 0.0
14/04:00am SSW 3 4 - - - - 10 - - 11.8 1017.9 0.0
14/03:30am SW 3 4 - - - - 10 - - 13.4 1017.9 0.0
14/03:00am WSW 5 6 - - - - 10 - - 13.7 1018.2 0.0
14/02:30am SW 1 5 - - - - 10 - - 14.1 1018.2 0.0
14/02:00am SW 1 3 - - - - 10 - - 14.2 1018.5 0.0
14/01:30am SW 4 5 - - - - 10 - - 14.5 1018.8 0.0
14/01:00am SSW 5 9 - - - - 10 Partly cloudy - 15.7 1019.0 0.0
14/12:30am SSW 7 10 - - - - 10 - - 16.2 1019.2 0.0
14/12:00am SSW 8 11 - - - - 10 - - 16.1 1019.4 0.0
 
Date/Time
EST
Wind Sea
Height
m
Swell Vis
km
Cloud Weather Temp
°C
Press
hPa
Rain since
9am
mm
Dir  Spd
kts
Gust
kts
Height
m
Period
s
Dir
13/11:30pm SSW 8 11 - - - - 10 - - 16.2 1019.7 0.0
13/11:00pm SSW 8 11 - - - - 10 - - 16.2 1019.8 0.0
13/10:30pm SSW 7 9 - - - - 10 - - 16.2 1019.7 0.0
13/10:00pm SSW 6 11 - - - - 10 - - 16.1 1019.7 0.0
13/09:30pm SSW 6 7 - - - - 10 - - 16.0 1019.6 0.0
13/09:00pm SSW 7 10 - - - - 10 - - 16.4 1019.7 0.0
13/08:30pm SSW 7 10 - - - - 10 Partly cloudy - 16.5 1019.8 0.0
13/08:00pm S 8 11 - - - - 10 - - 16.4 1019.5 0.0
13/07:30pm S 6 8 - - - - 10 Partly cloudy - 16.5 1019.3 0.0
13/07:00pm SSW 7 8 - - - - 10 - - 16.9 1019.0 0.0
13/06:30pm S 7 10 - - - - 10 - - 17.1 1018.4 0.0
13/06:00pm SSE 10 15 - - - - 10 - - 17.7 1018.0 0.0
13/05:30pm SSE 12 17 - - - - 10 - - 18.5 1017.4 0.0
13/05:00pm SSE 15 21 - - - - 10 - - 19.3 1016.9 0.0
13/04:57pm SSE 15 25 - - - - 10 - - 19.4 1016.9 0.0
13/04:30pm SE 17 24 - - - - 10 Partly cloudy - 20.1 1016.6 0.0
13/04:00pm SSE 16 22 - - - - 10 Partly cloudy - 20.7 1016.6 0.0
13/03:30pm SSE 14 20 - - - - 10 - - 20.3 1016.4 0.0
13/03:00pm SE 17 22 - - - - 10 Cloudy - 21.4 1016.3 0.0
13/02:30pm SE 16 21 - - - - 10 Partly cloudy - 21.4 1016.4 0.0
13/02:00pm SSE 15 21 - - - - 10 Partly cloudy - 21.6 1016.6 0.0
13/01:30pm SE 13 21 - - - - 10 Partly cloudy - 20.9 1016.7 0.0
13/01:00pm SSE 13 19 - - - - 10 Partly cloudy - 20.8 1016.9 0.0
13/12:30pm SSE 11 15 - - - - 10 Partly cloudy - 22.7 1016.9 0.0
13/12:00pm SSE 12 16 - - - - 10 Cloudy - 21.0 1016.9 0.0
13/11:30am S 11 18 - - - - 10 Partly cloudy - 22.5 1017.1 0.0
13/11:00am SSE 15 21 - - - - 10 Partly cloudy - 21.6 1017.2 0.0
13/10:30am S 13 20 - - - - 10 Partly cloudy - 20.9 1017.1 0.0

Other formats

Comma delimited format used in spreadsheet applications
http://www.bom.gov.au/fwo/IDQ60701/IDQ60701.94592.axf

JavaScript Object Notation format (JSON) in row-major order
http://www.bom.gov.au/fwo/IDQ60701/IDQ60701.94592.json

Data quality

Most of these data are generated automatically and are frequently updated. Quality checks on data are not normally performed. It is possible for incorrect values to appear. Refer to information at About Latest Weather Observations and please check the disclaimer before using these data.